Terminal Aerodrome Forecast
Issued by NWS Houston/Galveston, TX

Home | Current Version | Previous Version | Text Only | Print | Product List | Glossary On
Versions: 1 2 3 4 5 6 7 8 9 10 11 12 13 14 15 16 17 18 19 20 21 22 23 24 25 26 27 28 29 30
000
FTUS44 KHGX 020520
TAFCLL
TAF
KCLL 020520Z 0206/0306 01005KT P6SM SKC
      TEMPO 0209/0213 BKN025
     FM021400 36007KT P6SM SCT030
     FM021700 01010KT P6SM SCT040
     FM030100 03004KT P6SM FEW050=

USA.gov is the U.S. government's official web portal to all federal, state and local government web resources and services.